sensor_id;sensor_type;location;lat;lon;timestamp;P1;durP1;ratioP1;P2;durP2;ratioP2
71753;SDS011;59593;51.716;7.016;2024-02-15T00:00:39;16.48;;;12.63;;
71753;SDS011;59593;51.716;7.016;2024-02-15T00:03:05;17.55;;;12.60;;
71753;SDS011;59593;51.716;7.016;2024-02-15T00:05:38;17.52;;;12.38;;
71753;SDS011;59593;51.716;7.016;2024-02-15T00:08:04;18.70;;;13.55;;
71753;SDS011;59593;51.716;7.016;2024-02-15T00:10:31;16.73;;;12.93;;
71753;SDS011;59593;51.716;7.016;2024-02-15T00:12:58;19.95;;;13.10;;
71753;SDS011;59593;51.716;7.016;2024-02-15T00:15:23;14.05;;;12.18;;
71753;SDS011;59593;51.716;7.016;2024-02-15T00:17:49;18.73;;;13.32;;
71753;SDS011;59593;51.716;7.016;2024-02-15T00:20:15;17.42;;;13.13;;
71753;SDS011;59593;51.716;7.016;2024-02-15T00:22:42;16.70;;;12.75;;
71753;SDS011;59593;51.716;7.016;2024-02-15T00:25:08;16.30;;;11.95;;
71753;SDS011;59593;51.716;7.016;2024-02-15T00:27:37;16.02;;;12.55;;
71753;SDS011;59593;51.716;7.016;2024-02-15T00:30:03;16.45;;;12.23;;
71753;SDS011;59593;51.716;7.016;2024-02-15T00:32:32;15.15;;;12.27;;
71753;SDS011;59593;51.716;7.016;2024-02-15T00:34:58;16.05;;;13.48;;
71753;SDS011;59593;51.716;7.016;2024-02-15T00:37:24;15.88;;;11.50;;
71753;SDS011;59593;51.716;7.016;2024-02-15T00:39:50;15.43;;;11.27;;
71753;SDS011;59593;51.716;7.016;2024-02-15T00:42:15;14.15;;;11.07;;
71753;SDS011;59593;51.716;7.016;2024-02-15T00:44:41;15.73;;;11.93;;
71753;SDS011;59593;51.716;7.016;2024-02-15T00:47:07;12.40;;;11.10;;
71753;SDS011;59593;51.716;7.016;2024-02-15T00:49:34;16.90;;;11.75;;
71753;SDS011;59593;51.716;7.016;2024-02-15T00:52:01;17.75;;;11.98;;
71753;SDS011;59593;51.716;7.016;2024-02-15T00:54:26;14.43;;;11.60;;
71753;SDS011;59593;51.716;7.016;2024-02-15T00:56:52;16.20;;;12.02;;
71753;SDS011;59593;51.716;7.016;2024-02-15T00:59:17;14.75;;;11.23;;
71753;SDS011;59593;51.716;7.016;2024-02-15T01:01:43;18.27;;;11.10;;
71753;SDS011;59593;51.716;7.016;2024-02-15T01:04:09;16.33;;;11.43;;
71753;SDS011;59593;51.716;7.016;2024-02-15T01:06:35;14.73;;;11.48;;
71753;SDS011;59593;51.716;7.016;2024-02-15T01:09:01;16.20;;;12.27;;
71753;SDS011;59593;51.716;7.016;2024-02-15T01:11:29;12.90;;;11.57;;
71753;SDS011;59593;51.716;7.016;2024-02-15T01:13:57;15.45;;;11.60;;
71753;SDS011;59593;51.716;7.016;2024-02-15T01:16:23;15.95;;;11.75;;
71753;SDS011;59593;51.716;7.016;2024-02-15T01:18:49;13.57;;;11.88;;
71753;SDS011;59593;51.716;7.016;2024-02-15T01:21:15;16.83;;;12.07;;
71753;SDS011;59593;51.716;7.016;2024-02-15T01:23:42;15.07;;;12.13;;
71753;SDS011;59593;51.716;7.016;2024-02-15T01:26:07;15.48;;;12.68;;
71753;SDS011;59593;51.716;7.016;2024-02-15T01:28:33;16.95;;;12.98;;
71753;SDS011;59593;51.716;7.016;2024-02-15T01:30:59;19.48;;;12.93;;
71753;SDS011;59593;51.716;7.016;2024-02-15T01:33:24;19.60;;;13.25;;
71753;SDS011;59593;51.716;7.016;2024-02-15T01:35:50;19.50;;;12.82;;
71753;SDS011;59593;51.716;7.016;2024-02-15T01:38:16;16.33;;;12.75;;
71753;SDS011;59593;51.716;7.016;2024-02-15T01:40:41;19.42;;;12.90;;
71753;SDS011;59593;51.716;7.016;2024-02-15T01:43:07;18.13;;;12.63;;
71753;SDS011;59593;51.716;7.016;2024-02-15T01:45:33;17.10;;;12.32;;
71753;SDS011;59593;51.716;7.016;2024-02-15T01:47:58;17.92;;;12.52;;
71753;SDS011;59593;51.716;7.016;2024-02-15T01:50:24;16.98;;;12.93;;
71753;SDS011;59593;51.716;7.016;2024-02-15T01:52:52;16.35;;;12.40;;
71753;SDS011;59593;51.716;7.016;2024-02-15T01:55:19;20.00;;;11.57;;
71753;SDS011;59593;51.716;7.016;2024-02-15T01:57:46;19.90;;;11.68;;
71753;SDS011;59593;51.716;7.016;2024-02-15T02:00:15;18.08;;;12.23;;
71753;SDS011;59593;51.716;7.016;2024-02-15T02:02:44;14.50;;;10.90;;
71753;SDS011;59593;51.716;7.016;2024-02-15T02:05:10;16.13;;;11.65;;
71753;SDS011;59593;51.716;7.016;2024-02-15T02:07:36;21.02;;;11.45;;
71753;SDS011;59593;51.716;7.016;2024-02-15T02:10:02;17.40;;;10.93;;
71753;SDS011;59593;51.716;7.016;2024-02-15T02:12:28;16.73;;;11.30;;
71753;SDS011;59593;51.716;7.016;2024-02-15T02:14:54;20.15;;;11.75;;
71753;SDS011;59593;51.716;7.016;2024-02-15T02:17:20;20.35;;;14.73;;
71753;SDS011;59593;51.716;7.016;2024-02-15T02:19:46;20.52;;;15.65;;
71753;SDS011;59593;51.716;7.016;2024-02-15T02:22:14;25.98;;;16.50;;
71753;SDS011;59593;51.716;7.016;2024-02-15T02:27:32;22.13;;;17.15;;
71753;SDS011;59593;51.716;7.016;2024-02-15T02:29:58;25.17;;;17.58;;
71753;SDS011;59593;51.716;7.016;2024-02-15T02:32:27;23.10;;;16.85;;
71753;SDS011;59593;51.716;7.016;2024-02-15T02:34:53;24.55;;;16.50;;
71753;SDS011;59593;51.716;7.016;2024-02-15T02:37:24;23.70;;;16.77;;
71753;SDS011;59593;51.716;7.016;2024-02-15T02:39:50;26.17;;;15.90;;
71753;SDS011;59593;51.716;7.016;2024-02-15T02:42:16;22.80;;;15.68;;
71753;SDS011;59593;51.716;7.016;2024-02-15T02:44:42;20.73;;;14.55;;
71753;SDS011;59593;51.716;7.016;2024-02-15T02:47:07;22.70;;;14.57;;
71753;SDS011;59593;51.716;7.016;2024-02-15T02:49:36;23.05;;;15.60;;
71753;SDS011;59593;51.716;7.016;2024-02-15T02:52:02;20.67;;;13.68;;
71753;SDS011;59593;51.716;7.016;2024-02-15T02:54:28;23.65;;;14.57;;
71753;SDS011;59593;51.716;7.016;2024-02-15T02:56:54;22.50;;;15.05;;
71753;SDS011;59593;51.716;7.016;2024-02-15T02:59:20;24.98;;;15.80;;
71753;SDS011;59593;51.716;7.016;2024-02-15T03:01:46;23.75;;;15.85;;
71753;SDS011;59593;51.716;7.016;2024-02-15T03:04:14;24.17;;;14.30;;
71753;SDS011;59593;51.716;7.016;2024-02-15T03:06:42;23.50;;;12.98;;
71753;SDS011;59593;51.716;7.016;2024-02-15T03:09:08;20.10;;;12.95;;
71753;SDS011;59593;51.716;7.016;2024-02-15T03:11:34;25.83;;;14.07;;
71753;SDS011;59593;51.716;7.016;2024-02-15T03:14:01;23.77;;;12.88;;
71753;SDS011;59593;51.716;7.016;2024-02-15T03:16:29;19.95;;;12.85;;
71753;SDS011;59593;51.716;7.016;2024-02-15T03:18:55;23.38;;;12.57;;
71753;SDS011;59593;51.716;7.016;2024-02-15T03:21:21;19.73;;;12.05;;
71753;SDS011;59593;51.716;7.016;2024-02-15T03:23:46;24.38;;;14.48;;
71753;SDS011;59593;51.716;7.016;2024-02-15T03:26:12;21.90;;;12.85;;
71753;SDS011;59593;51.716;7.016;2024-02-15T03:28:39;17.88;;;11.27;;
71753;SDS011;59593;51.716;7.016;2024-02-15T03:31:04;20.02;;;11.10;;
71753;SDS011;59593;51.716;7.016;2024-02-15T03:33:30;17.50;;;11.13;;
71753;SDS011;59593;51.716;7.016;2024-02-15T03:35:59;26.92;;;11.75;;
71753;SDS011;59593;51.716;7.016;2024-02-15T03:38:26;20.42;;;10.60;;
71753;SDS011;59593;51.716;7.016;2024-02-15T03:40:54;17.83;;;10.48;;
71753;SDS011;59593;51.716;7.016;2024-02-15T03:43:23;18.75;;;10.25;;
71753;SDS011;59593;51.716;7.016;2024-02-15T03:45:49;18.95;;;10.68;;
71753;SDS011;59593;51.716;7.016;2024-02-15T03:48:16;17.23;;;9.52;;
71753;SDS011;59593;51.716;7.016;2024-02-15T03:50:42;17.20;;;9.82;;
71753;SDS011;59593;51.716;7.016;2024-02-15T03:53:11;20.65;;;9.73;;
71753;SDS011;59593;51.716;7.016;2024-02-15T03:55:36;17.50;;;10.07;;
71753;SDS011;59593;51.716;7.016;2024-02-15T03:58:02;21.17;;;12.10;;
71753;SDS011;59593;51.716;7.016;2024-02-15T04:00:28;17.88;;;9.88;;
71753;SDS011;59593;51.716;7.016;2024-02-15T04:02:54;18.98;;;11.43;;
71753;SDS011;59593;51.716;7.016;2024-02-15T04:05:20;24.02;;;15.98;;
71753;SDS011;59593;51.716;7.016;2024-02-15T04:07:48;18.13;;;12.20;;
71753;SDS011;59593;51.716;7.016;2024-02-15T04:10:13;18.50;;;9.75;;
71753;SDS011;59593;51.716;7.016;2024-02-15T04:12:39;17.55;;;9.68;;
71753;SDS011;59593;51.716;7.016;2024-02-15T04:15:07;14.55;;;8.25;;
71753;SDS011;59593;51.716;7.016;2024-02-15T04:17:37;11.18;;;7.65;;
71753;SDS011;59593;51.716;7.016;2024-02-15T04:20:03;15.40;;;7.28;;
71753;SDS011;59593;51.716;7.016;2024-02-15T04:22:31;16.70;;;7.82;;
71753;SDS011;59593;51.716;7.016;2024-02-15T04:25:02;19.85;;;8.57;;
71753;SDS011;59593;51.716;7.016;2024-02-15T04:27:31;19.75;;;13.25;;
71753;SDS011;59593;51.716;7.016;2024-02-15T04:29:57;19.92;;;12.57;;
71753;SDS011;59593;51.716;7.016;2024-02-15T04:32:23;16.70;;;8.25;;
71753;SDS011;59593;51.716;7.016;2024-02-15T04:34:48;14.93;;;9.50;;
71753;SDS011;59593;51.716;7.016;2024-02-15T04:37:14;16.17;;;10.55;;
71753;SDS011;59593;51.716;7.016;2024-02-15T04:39:41;20.83;;;12.48;;
71753;SDS011;59593;51.716;7.016;2024-02-15T04:42:07;13.75;;;8.55;;
71753;SDS011;59593;51.716;7.016;2024-02-15T04:44:37;14.13;;;7.97;;
71753;SDS011;59593;51.716;7.016;2024-02-15T04:47:04;13.95;;;8.13;;
71753;SDS011;59593;51.716;7.016;2024-02-15T04:49:30;20.10;;;7.25;;
71753;SDS011;59593;51.716;7.016;2024-02-15T04:51:56;14.68;;;7.88;;
71753;SDS011;59593;51.716;7.016;2024-02-15T04:54:29;12.18;;;8.40;;
71753;SDS011;59593;51.716;7.016;2024-02-15T04:56:54;13.20;;;8.88;;
71753;SDS011;59593;51.716;7.016;2024-02-15T04:59:21;15.38;;;8.18;;
71753;SDS011;59593;51.716;7.016;2024-02-15T05:01:51;12.48;;;7.20;;
71753;SDS011;59593;51.716;7.016;2024-02-15T05:04:17;14.35;;;6.20;;
71753;SDS011;59593;51.716;7.016;2024-02-15T05:06:43;10.98;;;6.30;;
71753;SDS011;59593;51.716;7.016;2024-02-15T05:09:10;12.88;;;6.35;;
71753;SDS011;59593;51.716;7.016;2024-02-15T05:11:39;8.77;;;4.78;;
71753;SDS011;59593;51.716;7.016;2024-02-15T05:14:06;10.40;;;5.90;;
71753;SDS011;59593;51.716;7.016;2024-02-15T05:16:32;12.90;;;6.22;;
71753;SDS011;59593;51.716;7.016;2024-02-15T05:18:59;15.55;;;5.82;;
71753;SDS011;59593;51.716;7.016;2024-02-15T05:21:24;11.90;;;5.68;;
71753;SDS011;59593;51.716;7.016;2024-02-15T05:23:50;12.85;;;5.20;;
71753;SDS011;59593;51.716;7.016;2024-02-15T05:26:17;10.63;;;5.28;;
71753;SDS011;59593;51.716;7.016;2024-02-15T05:28:48;12.32;;;5.32;;
71753;SDS011;59593;51.716;7.016;2024-02-15T05:31:20;7.45;;;4.45;;
71753;SDS011;59593;51.716;7.016;2024-02-15T05:33:47;9.63;;;4.65;;
71753;SDS011;59593;51.716;7.016;2024-02-15T05:36:14;8.00;;;4.47;;
71753;SDS011;59593;51.716;7.016;2024-02-15T05:38:41;10.35;;;4.43;;
71753;SDS011;59593;51.716;7.016;2024-02-15T05:41:11;10.40;;;4.53;;
71753;SDS011;59593;51.716;7.016;2024-02-15T05:43:37;12.18;;;4.88;;
71753;SDS011;59593;51.716;7.016;2024-02-15T05:46:04;12.70;;;5.05;;
71753;SDS011;59593;51.716;7.016;2024-02-15T05:48:31;9.18;;;4.25;;
71753;SDS011;59593;51.716;7.016;2024-02-15T05:51:00;13.40;;;4.72;;
71753;SDS011;59593;51.716;7.016;2024-02-15T05:53:26;10.43;;;4.30;;
71753;SDS011;59593;51.716;7.016;2024-02-15T05:55:52;12.98;;;4.88;;
71753;SDS011;59593;51.716;7.016;2024-02-15T05:58:18;19.00;;;5.85;;
71753;SDS011;59593;51.716;7.016;2024-02-15T06:00:43;17.38;;;5.30;;
71753;SDS011;59593;51.716;7.016;2024-02-15T06:03:10;14.45;;;4.90;;
71753;SDS011;59593;51.716;7.016;2024-02-15T06:05:38;17.05;;;5.90;;
71753;SDS011;59593;51.716;7.016;2024-02-15T06:08:05;13.48;;;4.38;;
71753;SDS011;59593;51.716;7.016;2024-02-15T06:10:30;11.70;;;4.15;;
71753;SDS011;59593;51.716;7.016;2024-02-15T06:12:56;10.65;;;3.90;;
71753;SDS011;59593;51.716;7.016;2024-02-15T06:15:24;14.93;;;4.57;;
71753;SDS011;59593;51.716;7.016;2024-02-15T06:17:50;7.63;;;3.72;;
71753;SDS011;59593;51.716;7.016;2024-02-15T06:20:15;8.52;;;4.20;;
71753;SDS011;59593;51.716;7.016;2024-02-15T06:22:46;13.40;;;3.40;;
71753;SDS011;59593;51.716;7.016;2024-02-15T06:25:12;6.75;;;3.30;;
71753;SDS011;59593;51.716;7.016;2024-02-15T06:27:38;10.02;;;3.72;;
71753;SDS011;59593;51.716;7.016;2024-02-15T06:30:08;9.15;;;3.50;;
71753;SDS011;59593;51.716;7.016;2024-02-15T06:32:53;9.20;;;3.45;;
71753;SDS011;59593;51.716;7.016;2024-02-15T06:35:38;6.97;;;3.40;;
71753;SDS011;59593;51.716;7.016;2024-02-15T06:38:23;7.75;;;3.13;;
71753;SDS011;59593;51.716;7.016;2024-02-15T06:41:07;6.57;;;3.00;;
71753;SDS011;59593;51.716;7.016;2024-02-15T06:43:34;5.63;;;3.00;;
71753;SDS011;59593;51.716;7.016;2024-02-15T06:46:00;5.68;;;3.15;;
71753;SDS011;59593;51.716;7.016;2024-02-15T06:48:27;9.13;;;3.33;;
71753;SDS011;59593;51.716;7.016;2024-02-15T06:50:53;6.50;;;3.03;;
71753;SDS011;59593;51.716;7.016;2024-02-15T06:53:19;6.85;;;3.03;;
71753;SDS011;59593;51.716;7.016;2024-02-15T06:55:45;7.63;;;3.28;;
71753;SDS011;59593;51.716;7.016;2024-02-15T06:58:14;7.90;;;3.28;;
71753;SDS011;59593;51.716;7.016;2024-02-15T07:00:43;10.00;;;4.00;;
71753;SDS011;59593;51.716;7.016;2024-02-15T07:03:09;13.50;;;4.05;;
71753;SDS011;59593;51.716;7.016;2024-02-15T07:05:36;7.97;;;3.88;;
71753;SDS011;59593;51.716;7.016;2024-02-15T07:08:03;6.40;;;3.70;;
71753;SDS011;59593;51.716;7.016;2024-02-15T07:10:35;9.05;;;3.78;;
71753;SDS011;59593;51.716;7.016;2024-02-15T07:13:03;7.30;;;3.80;;
71753;SDS011;59593;51.716;7.016;2024-02-15T07:15:29;7.95;;;4.30;;
71753;SDS011;59593;51.716;7.016;2024-02-15T07:17:58;9.35;;;5.00;;
71753;SDS011;59593;51.716;7.016;2024-02-15T07:20:24;9.27;;;4.40;;
71753;SDS011;59593;51.716;7.016;2024-02-15T07:22:50;9.05;;;5.00;;
71753;SDS011;59593;51.716;7.016;2024-02-15T07:25:16;9.57;;;3.85;;
71753;SDS011;59593;51.716;7.016;2024-02-15T07:27:43;10.10;;;3.90;;
71753;SDS011;59593;51.716;7.016;2024-02-15T07:30:08;7.63;;;3.92;;
71753;SDS011;59593;51.716;7.016;2024-02-15T07:32:34;6.38;;;4.03;;
71753;SDS011;59593;51.716;7.016;2024-02-15T07:35:00;7.30;;;4.07;;
71753;SDS011;59593;51.716;7.016;2024-02-15T07:37:26;7.93;;;3.60;;
71753;SDS011;59593;51.716;7.016;2024-02-15T07:39:54;8.25;;;4.07;;
71753;SDS011;59593;51.716;7.016;2024-02-15T07:42:19;9.98;;;3.85;;
71753;SDS011;59593;51.716;7.016;2024-02-15T07:44:45;11.52;;;3.50;;
71753;SDS011;59593;51.716;7.016;2024-02-15T07:47:11;9.13;;;3.40;;
71753;SDS011;59593;51.716;7.016;2024-02-15T07:49:36;9.27;;;3.80;;
71753;SDS011;59593;51.716;7.016;2024-02-15T07:52:02;7.57;;;3.70;;
71753;SDS011;59593;51.716;7.016;2024-02-15T07:54:29;8.50;;;3.20;;
71753;SDS011;59593;51.716;7.016;2024-02-15T07:56:56;6.15;;;3.55;;
71753;SDS011;59593;51.716;7.016;2024-02-15T07:59:23;12.00;;;3.78;;
71753;SDS011;59593;51.716;7.016;2024-02-15T08:01:48;8.23;;;4.25;;
71753;SDS011;59593;51.716;7.016;2024-02-15T08:04:18;8.30;;;4.38;;
71753;SDS011;59593;51.716;7.016;2024-02-15T08:06:44;7.80;;;4.63;;
71753;SDS011;59593;51.716;7.016;2024-02-15T08:09:10;7.80;;;4.28;;
71753;SDS011;59593;51.716;7.016;2024-02-15T08:11:38;8.25;;;4.05;;
71753;SDS011;59593;51.716;7.016;2024-02-15T08:14:05;14.32;;;4.50;;
71753;SDS011;59593;51.716;7.016;2024-02-15T08:16:35;9.15;;;4.95;;
71753;SDS011;59593;51.716;7.016;2024-02-15T08:19:01;7.30;;;4.75;;
71753;SDS011;59593;51.716;7.016;2024-02-15T08:21:28;9.25;;;4.80;;
71753;SDS011;59593;51.716;7.016;2024-02-15T08:23:57;10.23;;;5.03;;
71753;SDS011;59593;51.716;7.016;2024-02-15T08:26:23;8.23;;;4.68;;
71753;SDS011;59593;51.716;7.016;2024-02-15T08:28:49;8.55;;;4.10;;
71753;SDS011;59593;51.716;7.016;2024-02-15T08:31:15;8.95;;;4.68;;
71753;SDS011;59593;51.716;7.016;2024-02-15T08:33:41;11.57;;;5.22;;
71753;SDS011;59593;51.716;7.016;2024-02-15T08:36:08;10.30;;;4.50;;
71753;SDS011;59593;51.716;7.016;2024-02-15T08:38:35;10.38;;;4.80;;
71753;SDS011;59593;51.716;7.016;2024-02-15T08:41:02;9.63;;;4.43;;
71753;SDS011;59593;51.716;7.016;2024-02-15T08:43:29;8.00;;;4.40;;
71753;SDS011;59593;51.716;7.016;2024-02-15T08:45:57;7.18;;;3.83;;
71753;SDS011;59593;51.716;7.016;2024-02-15T08:48:23;9.75;;;4.57;;
71753;SDS011;59593;51.716;7.016;2024-02-15T08:50:49;10.93;;;3.88;;
71753;SDS011;59593;51.716;7.016;2024-02-15T08:53:16;10.52;;;3.85;;
71753;SDS011;59593;51.716;7.016;2024-02-15T08:55:44;9.68;;;3.67;;
71753;SDS011;59593;51.716;7.016;2024-02-15T08:58:10;7.82;;;3.88;;
71753;SDS011;59593;51.716;7.016;2024-02-15T09:00:35;11.45;;;4.47;;
71753;SDS011;59593;51.716;7.016;2024-02-15T09:03:02;10.95;;;4.20;;
71753;SDS011;59593;51.716;7.016;2024-02-15T09:05:28;9.75;;;4.10;;
71753;SDS011;59593;51.716;7.016;2024-02-15T09:07:54;10.50;;;4.88;;
71753;SDS011;59593;51.716;7.016;2024-02-15T09:10:20;10.10;;;4.97;;
71753;SDS011;59593;51.716;7.016;2024-02-15T09:12:48;9.73;;;4.40;;
71753;SDS011;59593;51.716;7.016;2024-02-15T09:15:14;7.45;;;4.43;;
71753;SDS011;59593;51.716;7.016;2024-02-15T09:17:40;8.05;;;4.07;;
71753;SDS011;59593;51.716;7.016;2024-02-15T09:20:17;8.02;;;4.57;;
71753;SDS011;59593;51.716;7.016;2024-02-15T09:22:52;9.63;;;5.07;;
71753;SDS011;59593;51.716;7.016;2024-02-15T09:25:19;8.52;;;4.60;;
71753;SDS011;59593;51.716;7.016;2024-02-15T09:27:48;6.45;;;4.07;;
71753;SDS011;59593;51.716;7.016;2024-02-15T09:30:14;7.90;;;3.42;;
71753;SDS011;59593;51.716;7.016;2024-02-15T09:32:43;8.00;;;3.75;;
71753;SDS011;59593;51.716;7.016;2024-02-15T09:35:10;8.27;;;4.10;;
71753;SDS011;59593;51.716;7.016;2024-02-15T09:37:45;6.95;;;3.55;;
71753;SDS011;59593;51.716;7.016;2024-02-15T09:40:15;6.53;;;3.40;;
71753;SDS011;59593;51.716;7.016;2024-02-15T09:42:42;7.25;;;3.63;;
71753;SDS011;59593;51.716;7.016;2024-02-15T09:45:10;6.78;;;3.00;;
71753;SDS011;59593;51.716;7.016;2024-02-15T09:47:40;7.03;;;3.05;;
71753;SDS011;59593;51.716;7.016;2024-02-15T09:50:06;9.38;;;3.15;;
71753;SDS011;59593;51.716;7.016;2024-02-15T09:52:33;9.75;;;3.50;;
71753;SDS011;59593;51.716;7.016;2024-02-15T09:55:02;7.57;;;3.47;;
71753;SDS011;59593;51.716;7.016;2024-02-15T09:57:29;9.25;;;3.60;;
71753;SDS011;59593;51.716;7.016;2024-02-15T09:59:57;7.97;;;3.30;;
71753;SDS011;59593;51.716;7.016;2024-02-15T10:02:24;8.85;;;3.25;;
71753;SDS011;59593;51.716;7.016;2024-02-15T10:04:51;10.07;;;3.83;;
71753;SDS011;59593;51.716;7.016;2024-02-15T10:07:18;6.97;;;3.50;;
71753;SDS011;59593;51.716;7.016;2024-02-15T10:09:44;8.07;;;3.72;;
71753;SDS011;59593;51.716;7.016;2024-02-15T10:12:09;10.57;;;3.65;;
71753;SDS011;59593;51.716;7.016;2024-02-15T10:14:35;8.80;;;3.78;;
71753;SDS011;59593;51.716;7.016;2024-02-15T10:17:07;9.80;;;3.83;;
71753;SDS011;59593;51.716;7.016;2024-02-15T10:19:39;6.90;;;3.72;;
71753;SDS011;59593;51.716;7.016;2024-02-15T10:22:07;9.30;;;4.10;;
71753;SDS011;59593;51.716;7.016;2024-02-15T10:24:34;11.20;;;4.25;;
71753;SDS011;59593;51.716;7.016;2024-02-15T10:27:02;9.70;;;3.88;;
71753;SDS011;59593;51.716;7.016;2024-02-15T10:29:31;9.52;;;4.03;;
71753;SDS011;59593;51.716;7.016;2024-02-15T10:32:01;8.57;;;3.38;;
71753;SDS011;59593;51.716;7.016;2024-02-15T10:34:28;7.82;;;3.50;;
71753;SDS011;59593;51.716;7.016;2024-02-15T10:37:16;8.32;;;3.50;;
71753;SDS011;59593;51.716;7.016;2024-02-15T10:39:42;7.53;;;3.20;;
71753;SDS011;59593;51.716;7.016;2024-02-15T10:42:07;9.48;;;3.10;;
71753;SDS011;59593;51.716;7.016;2024-02-15T10:44:36;5.03;;;2.92;;
71753;SDS011;59593;51.716;7.016;2024-02-15T10:47:03;11.75;;;3.50;;
71753;SDS011;59593;51.716;7.016;2024-02-15T10:49:32;6.43;;;3.70;;
71753;SDS011;59593;51.716;7.016;2024-02-15T10:51:59;9.57;;;4.13;;
71753;SDS011;59593;51.716;7.016;2024-02-15T10:57:19;12.38;;;6.82;;
71753;SDS011;59593;51.716;7.016;2024-02-15T10:59:57;7.80;;;3.97;;
71753;SDS011;59593;51.716;7.016;2024-02-15T11:02:26;7.75;;;3.47;;
71753;SDS011;59593;51.716;7.016;2024-02-15T11:05:01;9.98;;;3.47;;
71753;SDS011;59593;51.716;7.016;2024-02-15T11:07:34;7.90;;;3.80;;
71753;SDS011;59593;51.716;7.016;2024-02-15T11:10:04;8.82;;;3.80;;
71753;SDS011;59593;51.716;7.016;2024-02-15T11:12:35;11.55;;;4.18;;
71753;SDS011;59593;51.716;7.016;2024-02-15T11:15:02;8.18;;;3.05;;
71753;SDS011;59593;51.716;7.016;2024-02-15T11:20:10;10.18;;;3.88;;
71753;SDS011;59593;51.716;7.016;2024-02-15T11:22:56;6.85;;;3.55;;
71753;SDS011;59593;51.716;7.016;2024-02-15T11:25:31;5.35;;;3.00;;
71753;SDS011;59593;51.716;7.016;2024-02-15T11:30:52;4.38;;;2.70;;
71753;SDS011;59593;51.716;7.016;2024-02-15T11:36:08;6.05;;;2.85;;
71753;SDS011;59593;51.716;7.016;2024-02-15T11:38:36;10.32;;;4.80;;
71753;SDS011;59593;51.716;7.016;2024-02-15T11:41:06;7.88;;;3.97;;
71753;SDS011;59593;51.716;7.016;2024-02-15T11:46:14;6.43;;;2.97;;
71753;SDS011;59593;51.716;7.016;2024-02-15T11:48:50;6.00;;;2.70;;
71753;SDS011;59593;51.716;7.016;2024-02-15T11:59:38;7.05;;;2.80;;
71753;SDS011;59593;51.716;7.016;2024-02-15T12:02:18;7.55;;;2.67;;
71753;SDS011;59593;51.716;7.016;2024-02-15T12:05:05;7.00;;;2.42;;
71753;SDS011;59593;51.716;7.016;2024-02-15T12:07:49;6.57;;;3.13;;
71753;SDS011;59593;51.716;7.016;2024-02-15T12:10:34;6.30;;;3.10;;
71753;SDS011;59593;51.716;7.016;2024-02-15T12:13:18;6.07;;;2.60;;
71753;SDS011;59593;51.716;7.016;2024-02-15T12:16:02;5.57;;;2.70;;
71753;SDS011;59593;51.716;7.016;2024-02-15T12:18:46;7.05;;;2.30;;
71753;SDS011;59593;51.716;7.016;2024-02-15T12:21:17;6.97;;;2.55;;
71753;SDS011;59593;51.716;7.016;2024-02-15T12:23:48;6.40;;;2.30;;
71753;SDS011;59593;51.716;7.016;2024-02-15T12:26:18;6.38;;;2.30;;
71753;SDS011;59593;51.716;7.016;2024-02-15T12:28:50;6.97;;;2.50;;
71753;SDS011;59593;51.716;7.016;2024-02-15T12:31:20;5.65;;;3.40;;
71753;SDS011;59593;51.716;7.016;2024-02-15T12:33:46;5.55;;;2.38;;
71753;SDS011;59593;51.716;7.016;2024-02-15T12:36:13;6.03;;;2.22;;
71753;SDS011;59593;51.716;7.016;2024-02-15T12:38:39;6.38;;;2.28;;
71753;SDS011;59593;51.716;7.016;2024-02-15T12:41:19;4.90;;;2.28;;
71753;SDS011;59593;51.716;7.016;2024-02-15T12:43:45;4.78;;;2.30;;
71753;SDS011;59593;51.716;7.016;2024-02-15T12:46:11;7.60;;;2.33;;
71753;SDS011;59593;51.716;7.016;2024-02-15T12:48:37;5.15;;;2.40;;
71753;SDS011;59593;51.716;7.016;2024-02-15T12:51:12;6.05;;;2.30;;
71753;SDS011;59593;51.716;7.016;2024-02-15T12:53:39;5.13;;;1.90;;
71753;SDS011;59593;51.716;7.016;2024-02-15T12:56:06;7.00;;;2.50;;
71753;SDS011;59593;51.716;7.016;2024-02-15T12:58:34;6.28;;;3.00;;
71753;SDS011;59593;51.716;7.016;2024-02-15T13:01:00;5.10;;;2.10;;
71753;SDS011;59593;51.716;7.016;2024-02-15T13:03:26;5.80;;;2.88;;
71753;SDS011;59593;51.716;7.016;2024-02-15T13:05:52;6.40;;;2.75;;
71753;SDS011;59593;51.716;7.016;2024-02-15T13:08:18;4.97;;;2.33;;
71753;SDS011;59593;51.716;7.016;2024-02-15T13:10:44;4.57;;;2.72;;
71753;SDS011;59593;51.716;7.016;2024-02-15T13:13:11;5.28;;;2.50;;
71753;SDS011;59593;51.716;7.016;2024-02-15T13:15:39;3.90;;;2.28;;
71753;SDS011;59593;51.716;7.016;2024-02-15T13:18:05;4.50;;;2.20;;
71753;SDS011;59593;51.716;7.016;2024-02-15T13:20:34;3.15;;;1.83;;
71753;SDS011;59593;51.716;7.016;2024-02-15T13:23:03;3.47;;;2.28;;
71753;SDS011;59593;51.716;7.016;2024-02-15T13:25:50;4.63;;;2.00;;
71753;SDS011;59593;51.716;7.016;2024-02-15T13:28:17;8.90;;;2.55;;
71753;SDS011;59593;51.716;7.016;2024-02-15T13:30:43;4.82;;;2.00;;
71753;SDS011;59593;51.716;7.016;2024-02-15T13:33:10;3.95;;;2.00;;
71753;SDS011;59593;51.716;7.016;2024-02-15T13:35:36;7.20;;;2.70;;
71753;SDS011;59593;51.716;7.016;2024-02-15T13:38:02;5.60;;;3.20;;
71753;SDS011;59593;51.716;7.016;2024-02-15T13:40:28;5.95;;;3.00;;
71753;SDS011;59593;51.716;7.016;2024-02-15T13:42:57;4.65;;;2.72;;
71753;SDS011;59593;51.716;7.016;2024-02-15T13:45:24;4.85;;;2.20;;
71753;SDS011;59593;51.716;7.016;2024-02-15T13:48:02;3.60;;;2.15;;
71753;SDS011;59593;51.716;7.016;2024-02-15T13:50:29;4.88;;;2.38;;
71753;SDS011;59593;51.716;7.016;2024-02-15T13:52:55;7.05;;;2.10;;
71753;SDS011;59593;51.716;7.016;2024-02-15T13:55:23;7.05;;;1.98;;
71753;SDS011;59593;51.716;7.016;2024-02-15T13:57:50;4.70;;;1.77;;
71753;SDS011;59593;51.716;7.016;2024-02-15T14:00:17;4.70;;;1.77;;
71753;SDS011;59593;51.716;7.016;2024-02-15T14:02:50;4.03;;;2.00;;
71753;SDS011;59593;51.716;7.016;2024-02-15T14:05:17;6.00;;;1.90;;
71753;SDS011;59593;51.716;7.016;2024-02-15T14:07:49;3.00;;;1.50;;
71753;SDS011;59593;51.716;7.016;2024-02-15T14:10:17;4.35;;;2.10;;
71753;SDS011;59593;51.716;7.016;2024-02-15T14:12:46;5.13;;;2.00;;
71753;SDS011;59593;51.716;7.016;2024-02-15T14:15:13;5.43;;;1.77;;
71753;SDS011;59593;51.716;7.016;2024-02-15T14:17:40;4.30;;;1.80;;
71753;SDS011;59593;51.716;7.016;2024-02-15T14:20:06;3.25;;;1.67;;
71753;SDS011;59593;51.716;7.016;2024-02-15T14:22:38;2.92;;;1.70;;
71753;SDS011;59593;51.716;7.016;2024-02-15T14:25:09;3.45;;;1.98;;
71753;SDS011;59593;51.716;7.016;2024-02-15T14:27:36;8.60;;;1.90;;
71753;SDS011;59593;51.716;7.016;2024-02-15T14:30:04;3.50;;;1.88;;
71753;SDS011;59593;51.716;7.016;2024-02-15T14:32:49;5.90;;;2.30;;
71753;SDS011;59593;51.716;7.016;2024-02-15T14:37:57;6.72;;;2.60;;
71753;SDS011;59593;51.716;7.016;2024-02-15T14:40:23;6.70;;;3.95;;
71753;SDS011;59593;51.716;7.016;2024-02-15T14:42:48;9.13;;;4.90;;
71753;SDS011;59593;51.716;7.016;2024-02-15T14:45:14;4.00;;;1.85;;
71753;SDS011;59593;51.716;7.016;2024-02-15T14:47:40;6.63;;;2.83;;
71753;SDS011;59593;51.716;7.016;2024-02-15T14:50:07;6.38;;;2.50;;
71753;SDS011;59593;51.716;7.016;2024-02-15T14:52:36;6.38;;;2.80;;
71753;SDS011;59593;51.716;7.016;2024-02-15T14:55:05;5.30;;;2.22;;
71753;SDS011;59593;51.716;7.016;2024-02-15T14:57:36;6.15;;;2.40;;
71753;SDS011;59593;51.716;7.016;2024-02-15T15:00:03;5.93;;;2.15;;
71753;SDS011;59593;51.716;7.016;2024-02-15T15:02:37;6.05;;;2.28;;
71753;SDS011;59593;51.716;7.016;2024-02-15T15:05:03;6.35;;;2.50;;
71753;SDS011;59593;51.716;7.016;2024-02-15T15:07:48;5.85;;;2.45;;
71753;SDS011;59593;51.716;7.016;2024-02-15T15:10:37;6.45;;;2.08;;